createdAt,value
2019-03-24T00:02:13.489Z,16.12
2019-03-24T00:07:16.955Z,16.05
2019-03-24T00:12:20.434Z,15.32
2019-03-24T00:17:23.997Z,15.68
2019-03-24T00:22:27.516Z,15.08
2019-03-24T00:27:31.029Z,14.60
2019-03-24T00:32:34.509Z,14.73
2019-03-24T00:37:38.001Z,14.07
2019-03-24T00:42:41.503Z,13.28
2019-03-24T00:47:44.974Z,14.00
2019-03-24T00:52:48.457Z,13.08
2019-03-24T00:57:52.329Z,12.82
2019-03-24T01:02:55.839Z,12.18
2019-03-24T01:07:59.383Z,13.13
2019-03-24T01:13:02.920Z,12.85
2019-03-24T01:18:06.444Z,11.73
2019-03-24T01:23:10.106Z,11.48
2019-03-24T01:28:13.619Z,11.88
2019-03-24T01:33:17.094Z,11.75
2019-03-24T01:38:20.610Z,10.93
2019-03-24T01:43:24.130Z,10.50
2019-03-24T01:48:27.597Z,10.50
2019-03-24T01:53:31.080Z,10.53
2019-03-24T01:58:34.629Z,10.53
2019-03-24T02:03:38.297Z,9.83
2019-03-24T02:08:41.789Z,9.05
2019-03-24T02:13:45.273Z,9.60
2019-03-24T02:18:48.890Z,9.93
2019-03-24T02:23:52.620Z,9.78
2019-03-24T02:28:57.235Z,9.03
2019-03-24T02:34:00.731Z,9.18
2019-03-24T02:39:07.032Z,8.68
2019-03-24T02:44:10.510Z,8.00
2019-03-24T02:49:13.987Z,8.58
2019-03-24T02:54:17.527Z,8.18
2019-03-24T02:59:21.505Z,8.20
2019-03-24T03:04:25.003Z,7.80
2019-03-24T03:09:28.547Z,7.53
2019-03-24T03:14:32.555Z,7.65
2019-03-24T03:19:36.031Z,7.58
2019-03-24T03:24:39.568Z,7.42
2019-03-24T03:29:43.136Z,7.25
2019-03-24T03:34:46.604Z,7.50
2019-03-24T03:39:50.164Z,7.30
2019-03-24T03:44:53.693Z,7.03
2019-03-24T03:49:57.202Z,6.90
2019-03-24T03:55:00.664Z,6.22
2019-03-24T04:00:08.512Z,6.70
2019-03-24T04:05:12.334Z,6.33
2019-03-24T04:10:15.808Z,6.70
2019-03-24T04:15:19.340Z,6.25
2019-03-24T04:20:22.855Z,6.55
2019-03-24T04:25:26.398Z,6.17
2019-03-24T04:30:29.997Z,5.95
2019-03-24T04:35:33.626Z,5.55
2019-03-24T04:40:37.164Z,5.85
2019-03-24T04:45:40.632Z,5.53
2019-03-24T04:50:44.572Z,5.67
2019-03-24T04:55:48.070Z,5.62
2019-03-24T05:00:51.531Z,5.92
2019-03-24T05:05:55.411Z,5.15
2019-03-24T05:10:59.043Z,5.30
2019-03-24T05:16:02.505Z,5.33
2019-03-24T05:21:06.265Z,5.15
2019-03-24T05:26:09.725Z,4.97
2019-03-24T05:31:13.193Z,4.97
2019-03-24T05:36:16.662Z,5.35
2019-03-24T05:41:20.112Z,4.70
2019-03-24T05:46:23.624Z,5.20
2019-03-24T05:51:27.099Z,5.20
2019-03-24T05:56:30.574Z,4.60
2019-03-24T06:01:34.053Z,4.70
2019-03-24T06:06:37.537Z,4.40
2019-03-24T06:11:41.079Z,4.55
2019-03-24T06:16:44.615Z,4.83
2019-03-24T06:21:48.070Z,4.70
2019-03-24T06:26:51.720Z,4.30
2019-03-24T06:31:55.451Z,4.62
2019-03-24T06:36:59.306Z,3.92
2019-03-24T06:42:02.811Z,4.60
2019-03-24T06:47:06.281Z,4.37
2019-03-24T06:52:09.814Z,4.10
2019-03-24T06:57:13.311Z,4.03
2019-03-24T07:02:17.179Z,4.05
2019-03-24T07:07:20.733Z,4.20
2019-03-24T07:12:24.335Z,4.00
2019-03-24T07:17:27.827Z,4.08
2019-03-24T07:22:31.298Z,3.72
2019-03-24T07:27:34.755Z,3.90
2019-03-24T07:32:38.298Z,4.03
2019-03-24T07:37:41.765Z,3.65
2019-03-24T07:42:45.312Z,3.77
2019-03-24T07:47:49.130Z,3.33
2019-03-24T07:52:52.864Z,3.65
2019-03-24T07:57:56.686Z,3.70
2019-03-24T08:03:00.295Z,3.42
2019-03-24T08:08:04.213Z,3.67
2019-03-24T08:13:07.754Z,3.87
2019-03-24T08:18:11.238Z,3.58
2019-03-24T08:23:14.794Z,4.03
2019-03-24T08:28:18.326Z,3.60
2019-03-24T08:33:21.874Z,3.80
2019-03-24T08:38:25.345Z,3.37
2019-03-24T08:43:28.903Z,3.85
2019-03-24T08:48:40.363Z,4.20
2019-03-24T08:53:37.545Z,3.95
2019-03-24T08:58:41.025Z,3.98
2019-03-24T09:03:44.519Z,4.55
2019-03-24T09:08:48.972Z,4.70
2019-03-24T09:13:52.866Z,4.37
2019-03-24T09:18:56.379Z,5.28
2019-03-24T09:23:59.916Z,4.55
2019-03-24T09:29:03.499Z,5.17
2019-03-24T09:34:07.076Z,4.50
2019-03-24T09:39:10.660Z,4.80
2019-03-24T09:44:14.187Z,5.30
2019-03-24T09:49:17.715Z,5.50
2019-03-24T09:54:21.209Z,5.42
2019-03-24T09:59:24.733Z,5.62
2019-03-24T10:04:28.272Z,4.80
2019-03-24T10:09:31.780Z,4.78
2019-03-24T10:14:35.305Z,4.95
2019-03-24T10:19:38.832Z,4.95
2019-03-24T10:24:42.399Z,4.92
2019-03-24T10:29:45.865Z,4.60
2019-03-24T10:34:49.336Z,5.17
2019-03-24T10:39:52.872Z,4.97
2019-03-24T10:44:56.365Z,6.47
2019-03-24T10:49:59.917Z,5.00
2019-03-24T10:55:04.951Z,5.05
2019-03-24T11:00:11.612Z,4.33
2019-03-24T11:05:15.225Z,4.40
2019-03-24T11:10:18.765Z,4.05
2019-03-24T11:15:22.231Z,4.42
2019-03-24T11:20:25.710Z,4.37
2019-03-24T11:25:29.181Z,4.35
2019-03-24T11:30:32.650Z,4.05
2019-03-24T11:35:36.180Z,4.65
2019-03-24T11:40:39.652Z,4.35
2019-03-24T11:45:43.190Z,4.08
2019-03-24T11:50:46.700Z,4.60
2019-03-24T11:55:50.235Z,4.17
2019-03-24T12:00:53.719Z,3.67
2019-03-24T12:05:57.185Z,3.50
2019-03-24T12:11:00.661Z,3.83
2019-03-24T12:16:04.580Z,3.83
2019-03-24T12:21:08.252Z,4.08
2019-03-24T12:26:11.829Z,3.77
2019-03-24T12:31:15.369Z,3.65
2019-03-24T12:36:18.896Z,3.72
2019-03-24T12:41:22.361Z,3.33
2019-03-24T12:46:26.289Z,3.50
2019-03-24T12:51:29.790Z,3.42
2019-03-24T12:56:33.330Z,3.35
2019-03-24T13:01:36.894Z,3.00
2019-03-24T13:06:40.394Z,2.98
2019-03-24T13:11:44.063Z,3.00
2019-03-24T13:16:47.597Z,2.92
2019-03-24T13:21:51.065Z,2.60
2019-03-24T13:26:54.651Z,3.30
2019-03-24T13:31:58.226Z,2.90
2019-03-24T13:37:04.154Z,3.30
2019-03-24T13:42:06.974Z,3.20
2019-03-24T13:47:10.483Z,3.65
2019-03-24T13:52:14.022Z,3.95
2019-03-24T13:57:17.602Z,3.67
2019-03-24T14:02:21.455Z,5.42
2019-03-24T14:07:24.982Z,7.20
2019-03-24T14:12:28.573Z,7.17
2019-03-24T14:17:32.089Z,6.22
2019-03-24T14:22:35.687Z,6.00
2019-03-24T14:27:39.730Z,5.50
2019-03-24T14:32:43.593Z,5.55
2019-03-24T14:37:47.071Z,4.70
2019-03-24T14:42:51.120Z,4.15
2019-03-24T14:47:54.649Z,3.83
2019-03-24T14:52:58.177Z,3.35
2019-03-24T14:58:01.808Z,3.30
2019-03-24T15:03:06.784Z,5.00
2019-03-24T15:08:10.711Z,4.58
2019-03-24T15:13:14.234Z,3.95
2019-03-24T15:18:17.718Z,4.58
2019-03-24T15:23:21.779Z,4.20
2019-03-24T15:28:25.306Z,3.92
2019-03-24T15:33:28.775Z,3.90
2019-03-24T15:38:32.345Z,4.15
2019-03-24T15:43:36.072Z,4.05
2019-03-24T15:48:39.609Z,3.40
2019-03-24T15:53:43.806Z,3.52
2019-03-24T15:58:47.279Z,3.62
2019-03-24T16:03:50.966Z,3.00
2019-03-24T16:08:54.514Z,3.30
2019-03-24T16:13:57.976Z,3.33
2019-03-24T16:19:01.781Z,2.98
2019-03-24T16:24:05.338Z,3.40
2019-03-24T16:29:09.166Z,2.83
2019-03-24T16:34:12.770Z,2.50
2019-03-24T16:39:16.381Z,2.75
2019-03-24T16:44:19.943Z,3.10
2019-03-24T16:49:23.472Z,2.72
2019-03-24T16:54:26.995Z,3.08
2019-03-24T16:59:30.465Z,2.87
2019-03-24T17:04:34.045Z,3.65
2019-03-24T17:09:37.545Z,3.20
2019-03-24T17:14:41.090Z,3.30
2019-03-24T17:19:44.581Z,3.00
2019-03-24T17:24:48.746Z,2.80
2019-03-24T17:29:52.256Z,4.37
2019-03-24T17:34:55.731Z,4.10
2019-03-24T17:39:59.212Z,3.45
2019-03-24T17:45:03.150Z,3.77
2019-03-24T17:50:09.072Z,3.27
2019-03-24T17:55:12.976Z,3.90
2019-03-24T18:00:20.924Z,3.37
2019-03-24T18:05:24.496Z,3.17
2019-03-24T18:10:28.444Z,2.77
2019-03-24T18:15:31.987Z,2.83
2019-03-24T18:20:37.741Z,3.37
2019-03-24T18:25:41.229Z,3.20
2019-03-24T18:30:44.788Z,2.58
2019-03-24T18:35:48.254Z,2.75
2019-03-24T18:40:51.803Z,3.08
2019-03-24T18:45:55.565Z,2.65
2019-03-24T18:50:59.106Z,2.62
2019-03-24T18:56:03.080Z,2.27
2019-03-24T19:01:06.648Z,2.58
2019-03-24T19:06:10.212Z,2.75
2019-03-24T19:11:13.781Z,2.95
2019-03-24T19:16:17.234Z,2.87
2019-03-24T19:21:20.696Z,2.80
2019-03-24T19:26:24.200Z,2.58
2019-03-24T19:31:28.078Z,2.77
2019-03-24T19:36:32.782Z,3.22
2019-03-24T19:41:36.283Z,2.90
2019-03-24T19:46:39.776Z,2.80
2019-03-24T19:51:43.247Z,2.80
2019-03-24T19:56:46.763Z,3.15
2019-03-24T20:01:50.326Z,4.15
2019-03-24T20:06:53.909Z,2.60
2019-03-24T20:11:57.419Z,3.30
2019-03-24T20:17:01.389Z,3.42
2019-03-24T20:22:05.007Z,3.50
2019-03-24T20:27:08.489Z,3.62
2019-03-24T20:32:12.642Z,3.95
2019-03-24T20:37:16.567Z,3.72
2019-03-24T20:42:20.568Z,3.70
2019-03-24T20:47:24.121Z,3.60
2019-03-24T20:52:27.658Z,3.65
2019-03-24T20:57:31.176Z,3.58
2019-03-24T21:02:34.736Z,4.10
2019-03-24T21:07:38.206Z,3.27
2019-03-24T21:12:41.678Z,3.33
2019-03-24T21:17:45.216Z,3.47
2019-03-24T21:22:48.677Z,3.22
2019-03-24T21:27:52.210Z,3.30
2019-03-24T21:32:55.864Z,3.20
2019-03-24T21:37:59.362Z,2.92
2019-03-24T21:43:02.872Z,3.47
2019-03-24T21:48:06.677Z,3.77
2019-03-24T21:53:10.222Z,3.00
2019-03-24T21:58:14.635Z,3.40
2019-03-24T22:03:18.111Z,3.20
2019-03-24T22:08:21.670Z,3.20
2019-03-24T22:13:25.209Z,3.27
2019-03-24T22:18:28.674Z,3.15
2019-03-24T22:23:32.166Z,3.50
2019-03-24T22:28:35.669Z,3.40
2019-03-24T22:33:39.226Z,3.52
2019-03-24T22:38:42.896Z,3.30
2019-03-24T22:43:46.376Z,4.30
2019-03-24T22:48:49.950Z,3.42
2019-03-24T22:54:02.951Z,3.65
2019-03-24T22:58:58.710Z,3.92
2019-03-24T23:04:02.292Z,3.85
2019-03-24T23:09:08.541Z,4.37
2019-03-24T23:14:12.122Z,4.30
2019-03-24T23:19:15.616Z,4.95
2019-03-24T23:24:19.129Z,4.72
2019-03-24T23:29:22.676Z,4.60
2019-03-24T23:34:26.209Z,5.58
2019-03-24T23:39:29.714Z,5.90
2019-03-24T23:44:33.268Z,5.22
2019-03-24T23:49:36.773Z,5.50
2019-03-24T23:54:40.240Z,6.45
2019-03-24T23:59:43.755Z,6.10
